sensor_id;sensor_type;location;lat;lon;timestamp;P1;durP1;ratioP1;P2;durP2;ratioP2
65641;SDS011;52340;-6.720;108.544;2023-07-31T00:00:43;19.08;;;11.15;;
65641;SDS011;52340;-6.720;108.544;2023-07-31T00:01:44;17.40;;;10.35;;
65641;SDS011;52340;-6.720;108.544;2023-07-31T00:02:46;17.80;;;11.25;;
65641;SDS011;52340;-6.720;108.544;2023-07-31T00:03:48;20.10;;;11.43;;
65641;SDS011;52340;-6.720;108.544;2023-07-31T00:04:49;19.27;;;10.60;;
65641;SDS011;52340;-6.720;108.544;2023-07-31T00:05:51;21.40;;;11.10;;
65641;SDS011;52340;-6.720;108.544;2023-07-31T00:06:53;22.08;;;11.50;;
65641;SDS011;52340;-6.720;108.544;2023-07-31T00:07:55;18.02;;;10.52;;
65641;SDS011;52340;-6.720;108.544;2023-07-31T00:08:56;18.77;;;11.25;;
65641;SDS011;52340;-6.720;108.544;2023-07-31T00:09:58;21.40;;;10.85;;
65641;SDS011;52340;-6.720;108.544;2023-07-31T00:11:00;19.13;;;10.80;;
65641;SDS011;52340;-6.720;108.544;2023-07-31T00:12:03;18.23;;;11.00;;
65641;SDS011;52340;-6.720;108.544;2023-07-31T00:13:06;18.85;;;11.48;;
65641;SDS011;52340;-6.720;108.544;2023-07-31T00:14:07;21.48;;;11.85;;
65641;SDS011;52340;-6.720;108.544;2023-07-31T00:15:09;19.38;;;11.55;;
65641;SDS011;52340;-6.720;108.544;2023-07-31T00:16:11;18.50;;;11.40;;
65641;SDS011;52340;-6.720;108.544;2023-07-31T00:17:13;17.52;;;11.40;;
65641;SDS011;52340;-6.720;108.544;2023-07-31T00:18:15;17.70;;;11.98;;
65641;SDS011;52340;-6.720;108.544;2023-07-31T00:19:17;19.08;;;10.93;;
65641;SDS011;52340;-6.720;108.544;2023-07-31T00:20:18;19.02;;;11.40;;
65641;SDS011;52340;-6.720;108.544;2023-07-31T00:21:20;18.48;;;11.85;;
65641;SDS011;52340;-6.720;108.544;2023-07-31T00:22:22;17.02;;;10.88;;
65641;SDS011;52340;-6.720;108.544;2023-07-31T00:23:23;18.13;;;11.25;;
65641;SDS011;52340;-6.720;108.544;2023-07-31T00:24:25;18.60;;;11.93;;
65641;SDS011;52340;-6.720;108.544;2023-07-31T00:25:27;17.13;;;11.02;;
65641;SDS011;52340;-6.720;108.544;2023-07-31T00:26:29;22.17;;;12.00;;
65641;SDS011;52340;-6.720;108.544;2023-07-31T00:27:32;18.50;;;11.85;;
65641;SDS011;52340;-6.720;108.544;2023-07-31T00:28:34;21.02;;;11.68;;
65641;SDS011;52340;-6.720;108.544;2023-07-31T00:29:36;17.48;;;11.45;;
65641;SDS011;52340;-6.720;108.544;2023-07-31T00:30:38;20.38;;;11.70;;
65641;SDS011;52340;-6.720;108.544;2023-07-31T00:31:42;18.48;;;11.32;;
65641;SDS011;52340;-6.720;108.544;2023-07-31T00:32:44;18.55;;;11.18;;
65641;SDS011;52340;-6.720;108.544;2023-07-31T00:33:46;17.85;;;11.05;;
65641;SDS011;52340;-6.720;108.544;2023-07-31T00:34:50;23.45;;;11.73;;
65641;SDS011;52340;-6.720;108.544;2023-07-31T00:35:51;19.92;;;12.15;;
65641;SDS011;52340;-6.720;108.544;2023-07-31T00:36:53;18.50;;;11.23;;
65641;SDS011;52340;-6.720;108.544;2023-07-31T00:37:56;20.50;;;11.68;;
65641;SDS011;52340;-6.720;108.544;2023-07-31T00:38:58;17.33;;;11.85;;
65641;SDS011;52340;-6.720;108.544;2023-07-31T00:40:00;20.85;;;11.95;;
65641;SDS011;52340;-6.720;108.544;2023-07-31T00:41:02;18.65;;;11.75;;
65641;SDS011;52340;-6.720;108.544;2023-07-31T00:42:04;21.73;;;11.65;;
65641;SDS011;52340;-6.720;108.544;2023-07-31T00:43:07;19.02;;;11.75;;
65641;SDS011;52340;-6.720;108.544;2023-07-31T00:44:09;20.75;;;11.93;;
65641;SDS011;52340;-6.720;108.544;2023-07-31T00:45:11;20.63;;;11.85;;
65641;SDS011;52340;-6.720;108.544;2023-07-31T00:46:13;18.42;;;11.85;;
65641;SDS011;52340;-6.720;108.544;2023-07-31T00:47:14;21.00;;;12.43;;
65641;SDS011;52340;-6.720;108.544;2023-07-31T00:48:16;21.50;;;12.07;;
65641;SDS011;52340;-6.720;108.544;2023-07-31T00:49:18;20.02;;;12.20;;
65641;SDS011;52340;-6.720;108.544;2023-07-31T00:50:20;20.42;;;12.30;;
65641;SDS011;52340;-6.720;108.544;2023-07-31T00:51:22;24.17;;;13.07;;
65641;SDS011;52340;-6.720;108.544;2023-07-31T00:52:24;24.15;;;12.20;;
65641;SDS011;52340;-6.720;108.544;2023-07-31T00:53:25;20.70;;;11.95;;
65641;SDS011;52340;-6.720;108.544;2023-07-31T00:54:27;19.48;;;11.73;;
65641;SDS011;52340;-6.720;108.544;2023-07-31T00:55:29;24.88;;;12.23;;
65641;SDS011;52340;-6.720;108.544;2023-07-31T00:56:31;19.10;;;12.52;;
65641;SDS011;52340;-6.720;108.544;2023-07-31T00:57:33;20.52;;;12.25;;
65641;SDS011;52340;-6.720;108.544;2023-07-31T00:58:37;18.38;;;11.52;;
65641;SDS011;52340;-6.720;108.544;2023-07-31T00:59:39;20.13;;;12.35;;
65641;SDS011;52340;-6.720;108.544;2023-07-31T01:00:41;18.98;;;11.40;;
65641;SDS011;52340;-6.720;108.544;2023-07-31T01:01:43;19.08;;;11.65;;
65641;SDS011;52340;-6.720;108.544;2023-07-31T01:02:44;20.05;;;12.25;;
65641;SDS011;52340;-6.720;108.544;2023-07-31T01:03:46;21.35;;;11.60;;
65641;SDS011;52340;-6.720;108.544;2023-07-31T01:04:48;19.80;;;11.27;;
65641;SDS011;52340;-6.720;108.544;2023-07-31T01:05:52;18.92;;;11.65;;
65641;SDS011;52340;-6.720;108.544;2023-07-31T01:07:07;21.25;;;12.13;;
65641;SDS011;52340;-6.720;108.544;2023-07-31T01:08:15;20.88;;;12.10;;
65641;SDS011;52340;-6.720;108.544;2023-07-31T01:09:33;19.47;;;11.43;;
65641;SDS011;52340;-6.720;108.544;2023-07-31T01:10:44;18.02;;;10.73;;
65641;SDS011;52340;-6.720;108.544;2023-07-31T01:11:50;24.13;;;11.73;;
65641;SDS011;52340;-6.720;108.544;2023-07-31T01:12:54;19.42;;;11.18;;
65641;SDS011;52340;-6.720;108.544;2023-07-31T01:14:00;19.60;;;11.30;;
65641;SDS011;52340;-6.720;108.544;2023-07-31T01:15:05;20.13;;;11.80;;
65641;SDS011;52340;-6.720;108.544;2023-07-31T01:16:07;20.27;;;11.85;;
65641;SDS011;52340;-6.720;108.544;2023-07-31T01:17:09;18.60;;;11.45;;
65641;SDS011;52340;-6.720;108.544;2023-07-31T01:18:11;19.70;;;11.20;;
65641;SDS011;52340;-6.720;108.544;2023-07-31T01:19:13;19.83;;;10.70;;
65641;SDS011;52340;-6.720;108.544;2023-07-31T01:20:17;17.88;;;11.15;;
65641;SDS011;52340;-6.720;108.544;2023-07-31T01:21:30;16.92;;;11.30;;
65641;SDS011;52340;-6.720;108.544;2023-07-31T01:24:19;17.05;;;10.40;;
65641;SDS011;52340;-6.720;108.544;2023-07-31T01:25:28;15.60;;;10.43;;
65641;SDS011;52340;-6.720;108.544;2023-07-31T01:26:42;17.23;;;10.82;;
65641;SDS011;52340;-6.720;108.544;2023-07-31T01:27:48;16.05;;;10.60;;
65641;SDS011;52340;-6.720;108.544;2023-07-31T01:28:55;20.27;;;10.95;;
65641;SDS011;52340;-6.720;108.544;2023-07-31T01:30:00;17.60;;;10.55;;
65641;SDS011;52340;-6.720;108.544;2023-07-31T01:31:06;17.45;;;10.48;;
65641;SDS011;52340;-6.720;108.544;2023-07-31T01:32:08;17.15;;;10.27;;
65641;SDS011;52340;-6.720;108.544;2023-07-31T01:33:13;17.02;;;9.98;;
65641;SDS011;52340;-6.720;108.544;2023-07-31T01:34:15;15.55;;;9.82;;
65641;SDS011;52340;-6.720;108.544;2023-07-31T01:35:19;17.52;;;10.27;;
65641;SDS011;52340;-6.720;108.544;2023-07-31T01:36:20;18.83;;;10.90;;
65641;SDS011;52340;-6.720;108.544;2023-07-31T01:37:23;16.80;;;10.35;;
65641;SDS011;52340;-6.720;108.544;2023-07-31T01:38:29;19.60;;;10.20;;
65641;SDS011;52340;-6.720;108.544;2023-07-31T01:39:31;17.95;;;9.75;;
65641;SDS011;52340;-6.720;108.544;2023-07-31T01:40:32;18.27;;;10.23;;
65641;SDS011;52340;-6.720;108.544;2023-07-31T01:41:34;18.45;;;10.13;;
65641;SDS011;52340;-6.720;108.544;2023-07-31T01:42:37;17.60;;;10.27;;
65641;SDS011;52340;-6.720;108.544;2023-07-31T01:43:39;17.05;;;10.48;;
65641;SDS011;52340;-6.720;108.544;2023-07-31T01:44:41;16.33;;;10.20;;
65641;SDS011;52340;-6.720;108.544;2023-07-31T01:45:45;18.08;;;9.90;;
65641;SDS011;52340;-6.720;108.544;2023-07-31T01:46:47;19.73;;;10.25;;
65641;SDS011;52340;-6.720;108.544;2023-07-31T01:47:48;20.95;;;10.13;;
65641;SDS011;52340;-6.720;108.544;2023-07-31T01:48:52;18.30;;;10.05;;
65641;SDS011;52340;-6.720;108.544;2023-07-31T01:49:57;18.25;;;10.18;;
65641;SDS011;52340;-6.720;108.544;2023-07-31T01:51:00;18.75;;;9.93;;
65641;SDS011;52340;-6.720;108.544;2023-07-31T01:52:02;16.05;;;9.60;;
65641;SDS011;52340;-6.720;108.544;2023-07-31T01:53:04;17.58;;;9.77;;
65641;SDS011;52340;-6.720;108.544;2023-07-31T01:54:06;17.83;;;9.45;;
65641;SDS011;52340;-6.720;108.544;2023-07-31T01:55:07;17.90;;;9.85;;
65641;SDS011;52340;-6.720;108.544;2023-07-31T01:56:09;18.02;;;9.80;;
65641;SDS011;52340;-6.720;108.544;2023-07-31T01:57:11;21.02;;;10.23;;
65641;SDS011;52340;-6.720;108.544;2023-07-31T01:58:17;17.77;;;10.02;;
65641;SDS011;52340;-6.720;108.544;2023-07-31T01:59:19;18.42;;;10.10;;
65641;SDS011;52340;-6.720;108.544;2023-07-31T02:00:21;17.48;;;10.50;;
65641;SDS011;52340;-6.720;108.544;2023-07-31T02:01:25;22.98;;;11.15;;
65641;SDS011;52340;-6.720;108.544;2023-07-31T02:02:27;18.58;;;10.27;;
65641;SDS011;52340;-6.720;108.544;2023-07-31T02:03:29;20.40;;;11.43;;
65641;SDS011;52340;-6.720;108.544;2023-07-31T02:04:31;27.70;;;11.35;;
65641;SDS011;52340;-6.720;108.544;2023-07-31T02:05:32;23.00;;;10.80;;
65641;SDS011;52340;-6.720;108.544;2023-07-31T02:06:34;20.77;;;10.20;;
65641;SDS011;52340;-6.720;108.544;2023-07-31T02:07:36;24.77;;;10.77;;
65641;SDS011;52340;-6.720;108.544;2023-07-31T02:08:38;21.30;;;10.50;;
65641;SDS011;52340;-6.720;108.544;2023-07-31T02:09:42;19.30;;;10.25;;
65641;SDS011;52340;-6.720;108.544;2023-07-31T02:10:46;30.55;;;11.23;;
65641;SDS011;52340;-6.720;108.544;2023-07-31T02:11:48;37.75;;;10.98;;
65641;SDS011;52340;-6.720;108.544;2023-07-31T02:12:49;34.88;;;10.50;;
65641;SDS011;52340;-6.720;108.544;2023-07-31T02:13:56;22.67;;;10.55;;
65641;SDS011;52340;-6.720;108.544;2023-07-31T02:14:57;22.70;;;11.10;;
65641;SDS011;52340;-6.720;108.544;2023-07-31T02:15:59;22.25;;;10.23;;
65641;SDS011;52340;-6.720;108.544;2023-07-31T02:17:01;18.92;;;10.40;;
65641;SDS011;52340;-6.720;108.544;2023-07-31T02:18:02;19.13;;;10.27;;
65641;SDS011;52340;-6.720;108.544;2023-07-31T02:19:04;18.55;;;10.02;;
65641;SDS011;52340;-6.720;108.544;2023-07-31T02:20:06;20.40;;;9.77;;
65641;SDS011;52340;-6.720;108.544;2023-07-31T02:21:08;19.55;;;10.18;;
65641;SDS011;52340;-6.720;108.544;2023-07-31T02:22:10;16.00;;;9.93;;
65641;SDS011;52340;-6.720;108.544;2023-07-31T02:23:15;19.77;;;10.43;;
65641;SDS011;52340;-6.720;108.544;2023-07-31T02:24:16;16.35;;;10.15;;
65641;SDS011;52340;-6.720;108.544;2023-07-31T02:25:18;17.52;;;10.65;;
65641;SDS011;52340;-6.720;108.544;2023-07-31T02:26:23;20.58;;;10.52;;
65641;SDS011;52340;-6.720;108.544;2023-07-31T02:27:24;16.92;;;10.38;;
65641;SDS011;52340;-6.720;108.544;2023-07-31T02:28:29;18.33;;;10.32;;
65641;SDS011;52340;-6.720;108.544;2023-07-31T02:29:32;20.15;;;10.57;;
65641;SDS011;52340;-6.720;108.544;2023-07-31T02:30:34;17.15;;;10.40;;
65641;SDS011;52340;-6.720;108.544;2023-07-31T02:31:38;17.05;;;10.43;;
65641;SDS011;52340;-6.720;108.544;2023-07-31T02:32:40;16.02;;;10.48;;
65641;SDS011;52340;-6.720;108.544;2023-07-31T02:33:42;19.10;;;10.70;;
65641;SDS011;52340;-6.720;108.544;2023-07-31T02:34:45;16.85;;;10.38;;
65641;SDS011;52340;-6.720;108.544;2023-07-31T02:35:47;17.85;;;10.70;;
65641;SDS011;52340;-6.720;108.544;2023-07-31T02:36:49;18.15;;;10.48;;
65641;SDS011;52340;-6.720;108.544;2023-07-31T02:37:51;19.90;;;11.02;;
65641;SDS011;52340;-6.720;108.544;2023-07-31T02:38:52;19.65;;;11.13;;
65641;SDS011;52340;-6.720;108.544;2023-07-31T02:39:54;19.55;;;10.98;;
65641;SDS011;52340;-6.720;108.544;2023-07-31T02:41:01;17.02;;;10.77;;
65641;SDS011;52340;-6.720;108.544;2023-07-31T02:42:03;17.48;;;10.25;;
65641;SDS011;52340;-6.720;108.544;2023-07-31T02:43:05;19.55;;;11.05;;
65641;SDS011;52340;-6.720;108.544;2023-07-31T02:44:07;21.40;;;10.77;;
65641;SDS011;52340;-6.720;108.544;2023-07-31T02:45:10;18.92;;;10.40;;
65641;SDS011;52340;-6.720;108.544;2023-07-31T02:46:12;18.25;;;10.02;;
65641;SDS011;52340;-6.720;108.544;2023-07-31T02:47:14;17.50;;;10.15;;
65641;SDS011;52340;-6.720;108.544;2023-07-31T02:48:16;16.02;;;10.60;;
65641;SDS011;52340;-6.720;108.544;2023-07-31T02:49:17;16.55;;;10.10;;
65641;SDS011;52340;-6.720;108.544;2023-07-31T02:50:19;19.52;;;10.40;;
65641;SDS011;52340;-6.720;108.544;2023-07-31T02:51:21;20.05;;;11.05;;
65641;SDS011;52340;-6.720;108.544;2023-07-31T02:52:22;18.65;;;11.02;;
65641;SDS011;52340;-6.720;108.544;2023-07-31T02:53:24;20.92;;;11.18;;
65641;SDS011;52340;-6.720;108.544;2023-07-31T02:54:26;19.70;;;11.00;;
65641;SDS011;52340;-6.720;108.544;2023-07-31T02:55:28;19.50;;;10.80;;
65641;SDS011;52340;-6.720;108.544;2023-07-31T02:56:29;17.88;;;10.70;;
65641;SDS011;52340;-6.720;108.544;2023-07-31T02:57:31;16.77;;;10.43;;
65641;SDS011;52340;-6.720;108.544;2023-07-31T02:58:35;19.73;;;10.77;;
65641;SDS011;52340;-6.720;108.544;2023-07-31T02:59:37;20.38;;;11.00;;
65641;SDS011;52340;-6.720;108.544;2023-07-31T03:00:43;16.63;;;10.65;;
65641;SDS011;52340;-6.720;108.544;2023-07-31T03:01:45;17.92;;;10.75;;
65641;SDS011;52340;-6.720;108.544;2023-07-31T03:02:47;19.20;;;10.30;;
65641;SDS011;52340;-6.720;108.544;2023-07-31T03:03:48;17.90;;;10.25;;
65641;SDS011;52340;-6.720;108.544;2023-07-31T03:04:50;17.02;;;9.80;;
65641;SDS011;52340;-6.720;108.544;2023-07-31T03:05:52;18.77;;;9.73;;
65641;SDS011;52340;-6.720;108.544;2023-07-31T03:06:54;15.35;;;9.27;;
65641;SDS011;52340;-6.720;108.544;2023-07-31T03:07:55;14.50;;;9.63;;
65641;SDS011;52340;-6.720;108.544;2023-07-31T03:08:57;15.88;;;9.43;;
65641;SDS011;52340;-6.720;108.544;2023-07-31T03:09:59;18.60;;;10.18;;
65641;SDS011;52340;-6.720;108.544;2023-07-31T03:11:00;14.45;;;9.60;;
65641;SDS011;52340;-6.720;108.544;2023-07-31T03:12:02;17.08;;;9.25;;
65641;SDS011;52340;-6.720;108.544;2023-07-31T03:13:04;15.68;;;8.75;;
65641;SDS011;52340;-6.720;108.544;2023-07-31T03:14:06;14.75;;;10.10;;
65641;SDS011;52340;-6.720;108.544;2023-07-31T03:15:08;18.02;;;9.95;;
65641;SDS011;52340;-6.720;108.544;2023-07-31T03:16:12;18.33;;;9.65;;
65641;SDS011;52340;-6.720;108.544;2023-07-31T03:17:15;17.27;;;9.88;;
65641;SDS011;52340;-6.720;108.544;2023-07-31T03:18:16;19.00;;;10.60;;
65641;SDS011;52340;-6.720;108.544;2023-07-31T03:19:18;17.83;;;11.02;;
65641;SDS011;52340;-6.720;108.544;2023-07-31T03:20:20;18.45;;;10.85;;
65641;SDS011;52340;-6.720;108.544;2023-07-31T03:21:22;19.23;;;10.13;;
65641;SDS011;52340;-6.720;108.544;2023-07-31T03:22:24;17.33;;;10.38;;
65641;SDS011;52340;-6.720;108.544;2023-07-31T03:23:25;16.67;;;10.35;;
65641;SDS011;52340;-6.720;108.544;2023-07-31T03:24:28;17.58;;;10.10;;
65641;SDS011;52340;-6.720;108.544;2023-07-31T03:25:30;19.05;;;10.30;;
65641;SDS011;52340;-6.720;108.544;2023-07-31T03:26:31;17.17;;;10.45;;
65641;SDS011;52340;-6.720;108.544;2023-07-31T03:27:33;20.85;;;10.32;;
65641;SDS011;52340;-6.720;108.544;2023-07-31T03:28:35;18.05;;;10.85;;
65641;SDS011;52340;-6.720;108.544;2023-07-31T03:29:37;16.13;;;10.35;;
65641;SDS011;52340;-6.720;108.544;2023-07-31T03:30:39;17.98;;;10.48;;
65641;SDS011;52340;-6.720;108.544;2023-07-31T03:31:43;17.30;;;10.30;;
65641;SDS011;52340;-6.720;108.544;2023-07-31T03:32:44;18.48;;;9.82;;
65641;SDS011;52340;-6.720;108.544;2023-07-31T03:33:46;19.48;;;10.15;;
65641;SDS011;52340;-6.720;108.544;2023-07-31T03:34:48;18.17;;;10.45;;
65641;SDS011;52340;-6.720;108.544;2023-07-31T03:35:50;20.90;;;10.70;;
65641;SDS011;52340;-6.720;108.544;2023-07-31T03:36:52;17.42;;;10.55;;
65641;SDS011;52340;-6.720;108.544;2023-07-31T03:37:54;17.02;;;9.90;;
65641;SDS011;52340;-6.720;108.544;2023-07-31T03:38:55;20.77;;;10.93;;
65641;SDS011;52340;-6.720;108.544;2023-07-31T03:39:57;19.50;;;11.18;;
65641;SDS011;52340;-6.720;108.544;2023-07-31T03:40:59;17.70;;;10.98;;
65641;SDS011;52340;-6.720;108.544;2023-07-31T03:42:01;19.13;;;11.55;;
65641;SDS011;52340;-6.720;108.544;2023-07-31T03:43:02;22.42;;;12.00;;
65641;SDS011;52340;-6.720;108.544;2023-07-31T03:44:07;20.42;;;12.05;;
65641;SDS011;52340;-6.720;108.544;2023-07-31T03:45:09;17.70;;;11.70;;
65641;SDS011;52340;-6.720;108.544;2023-07-31T03:46:11;22.20;;;13.20;;
65641;SDS011;52340;-6.720;108.544;2023-07-31T03:47:14;23.02;;;15.63;;
65641;SDS011;52340;-6.720;108.544;2023-07-31T03:48:16;27.90;;;16.80;;
65641;SDS011;52340;-6.720;108.544;2023-07-31T03:49:18;32.00;;;19.63;;
65641;SDS011;52340;-6.720;108.544;2023-07-31T03:50:19;45.28;;;26.90;;
65641;SDS011;52340;-6.720;108.544;2023-07-31T03:51:21;37.78;;;21.40;;
65641;SDS011;52340;-6.720;108.544;2023-07-31T03:52:23;34.70;;;22.42;;
65641;SDS011;52340;-6.720;108.544;2023-07-31T03:53:25;115.05;;;58.00;;
65641;SDS011;52340;-6.720;108.544;2023-07-31T03:54:26;99.85;;;54.70;;
65641;SDS011;52340;-6.720;108.544;2023-07-31T03:55:28;100.00;;;48.80;;
65641;SDS011;52340;-6.720;108.544;2023-07-31T03:56:30;77.00;;;39.33;;
65641;SDS011;52340;-6.720;108.544;2023-07-31T03:57:31;53.17;;;29.70;;
65641;SDS011;52340;-6.720;108.544;2023-07-31T03:58:33;66.38;;;32.60;;
65641;SDS011;52340;-6.720;108.544;2023-07-31T03:59:35;64.05;;;31.25;;
65641;SDS011;52340;-6.720;108.544;2023-07-31T04:00:36;56.88;;;29.40;;
65641;SDS011;52340;-6.720;108.544;2023-07-31T04:01:38;50.15;;;27.77;;
65641;SDS011;52340;-6.720;108.544;2023-07-31T04:02:42;40.38;;;24.35;;
65641;SDS011;52340;-6.720;108.544;2023-07-31T04:03:43;39.58;;;21.88;;
65641;SDS011;52340;-6.720;108.544;2023-07-31T04:04:45;34.08;;;19.02;;
65641;SDS011;52340;-6.720;108.544;2023-07-31T04:05:47;36.50;;;19.23;;
65641;SDS011;52340;-6.720;108.544;2023-07-31T04:06:49;34.58;;;18.80;;
65641;SDS011;52340;-6.720;108.544;2023-07-31T04:07:50;31.45;;;17.55;;
65641;SDS011;52340;-6.720;108.544;2023-07-31T04:08:52;30.40;;;17.52;;
65641;SDS011;52340;-6.720;108.544;2023-07-31T04:09:54;26.20;;;15.98;;
65641;SDS011;52340;-6.720;108.544;2023-07-31T04:10:56;23.17;;;15.00;;
65641;SDS011;52340;-6.720;108.544;2023-07-31T04:11:58;27.48;;;15.07;;
65641;SDS011;52340;-6.720;108.544;2023-07-31T04:12:59;22.27;;;13.65;;
65641;SDS011;52340;-6.720;108.544;2023-07-31T04:14:01;23.00;;;13.52;;
65641;SDS011;52340;-6.720;108.544;2023-07-31T04:15:03;25.08;;;14.02;;
65641;SDS011;52340;-6.720;108.544;2023-07-31T04:16:08;24.25;;;13.57;;
65641;SDS011;52340;-6.720;108.544;2023-07-31T04:17:10;22.20;;;12.85;;
65641;SDS011;52340;-6.720;108.544;2023-07-31T04:18:14;20.58;;;13.93;;
65641;SDS011;52340;-6.720;108.544;2023-07-31T04:19:15;28.27;;;14.52;;
65641;SDS011;52340;-6.720;108.544;2023-07-31T04:20:17;23.52;;;13.88;;
65641;SDS011;52340;-6.720;108.544;2023-07-31T04:21:19;21.27;;;14.02;;
65641;SDS011;52340;-6.720;108.544;2023-07-31T04:22:21;22.85;;;14.27;;
65641;SDS011;52340;-6.720;108.544;2023-07-31T04:23:22;22.65;;;14.35;;
65641;SDS011;52340;-6.720;108.544;2023-07-31T04:24:24;23.00;;;14.73;;
65641;SDS011;52340;-6.720;108.544;2023-07-31T04:25:26;28.42;;;14.20;;
65641;SDS011;52340;-6.720;108.544;2023-07-31T04:26:27;21.70;;;14.10;;
65641;SDS011;52340;-6.720;108.544;2023-07-31T04:27:32;22.05;;;14.75;;
65641;SDS011;52340;-6.720;108.544;2023-07-31T04:28:34;25.35;;;14.07;;
65641;SDS011;52340;-6.720;108.544;2023-07-31T04:29:36;22.80;;;14.00;;
65641;SDS011;52340;-6.720;108.544;2023-07-31T04:30:37;22.40;;;14.65;;
65641;SDS011;52340;-6.720;108.544;2023-07-31T04:31:39;22.50;;;14.13;;
65641;SDS011;52340;-6.720;108.544;2023-07-31T04:32:41;24.48;;;14.60;;
65641;SDS011;52340;-6.720;108.544;2023-07-31T04:33:44;22.95;;;14.73;;
65641;SDS011;52340;-6.720;108.544;2023-07-31T04:34:46;24.02;;;14.52;;
65641;SDS011;52340;-6.720;108.544;2023-07-31T04:35:51;23.00;;;14.73;;
65641;SDS011;52340;-6.720;108.544;2023-07-31T04:36:53;28.67;;;15.35;;
65641;SDS011;52340;-6.720;108.544;2023-07-31T04:37:57;22.58;;;14.35;;
65641;SDS011;52340;-6.720;108.544;2023-07-31T04:38:59;22.42;;;14.75;;
65641;SDS011;52340;-6.720;108.544;2023-07-31T04:40:01;22.40;;;14.70;;
65641;SDS011;52340;-6.720;108.544;2023-07-31T04:41:03;26.35;;;15.32;;
65641;SDS011;52340;-6.720;108.544;2023-07-31T04:42:05;23.85;;;14.63;;
65641;SDS011;52340;-6.720;108.544;2023-07-31T04:43:06;25.85;;;15.43;;
65641;SDS011;52340;-6.720;108.544;2023-07-31T04:44:08;23.92;;;16.10;;
65641;SDS011;52340;-6.720;108.544;2023-07-31T04:45:10;25.20;;;16.00;;
65641;SDS011;52340;-6.720;108.544;2023-07-31T04:46:11;28.60;;;16.55;;
65641;SDS011;52340;-6.720;108.544;2023-07-31T04:47:13;23.77;;;15.60;;
65641;SDS011;52340;-6.720;108.544;2023-07-31T04:48:15;25.55;;;16.00;;
65641;SDS011;52340;-6.720;108.544;2023-07-31T04:49:21;22.20;;;15.50;;
65641;SDS011;52340;-6.720;108.544;2023-07-31T04:50:23;23.05;;;16.13;;
65641;SDS011;52340;-6.720;108.544;2023-07-31T04:51:24;21.95;;;15.27;;
65641;SDS011;52340;-6.720;108.544;2023-07-31T04:52:26;26.75;;;15.07;;
65641;SDS011;52340;-6.720;108.544;2023-07-31T04:53:28;22.92;;;15.15;;
65641;SDS011;52340;-6.720;108.544;2023-07-31T04:54:29;25.38;;;15.77;;
65641;SDS011;52340;-6.720;108.544;2023-07-31T04:55:31;22.83;;;14.88;;
65641;SDS011;52340;-6.720;108.544;2023-07-31T04:56:33;23.60;;;14.13;;
65641;SDS011;52340;-6.720;108.544;2023-07-31T04:57:35;20.42;;;14.32;;
65641;SDS011;52340;-6.720;108.544;2023-07-31T04:58:36;22.00;;;14.32;;
65641;SDS011;52340;-6.720;108.544;2023-07-31T04:59:38;21.90;;;14.32;;
65641;SDS011;52340;-6.720;108.544;2023-07-31T05:00:40;23.58;;;14.40;;
65641;SDS011;52340;-6.720;108.544;2023-07-31T05:01:41;20.10;;;13.88;;
65641;SDS011;52340;-6.720;108.544;2023-07-31T05:02:43;22.63;;;14.52;;
65641;SDS011;52340;-6.720;108.544;2023-07-31T05:03:45;23.08;;;15.38;;
65641;SDS011;52340;-6.720;108.544;2023-07-31T05:04:48;20.67;;;14.73;;
65641;SDS011;52340;-6.720;108.544;2023-07-31T05:05:50;22.85;;;14.65;;
65641;SDS011;52340;-6.720;108.544;2023-07-31T05:06:52;21.42;;;14.63;;
65641;SDS011;52340;-6.720;108.544;2023-07-31T05:07:53;21.70;;;14.63;;
65641;SDS011;52340;-6.720;108.544;2023-07-31T05:08:58;23.75;;;14.55;;
65641;SDS011;52340;-6.720;108.544;2023-07-31T05:09:59;21.00;;;14.52;;
65641;SDS011;52340;-6.720;108.544;2023-07-31T05:11:02;18.42;;;13.82;;
65641;SDS011;52340;-6.720;108.544;2023-07-31T05:12:04;21.05;;;14.73;;
65641;SDS011;52340;-6.720;108.544;2023-07-31T05:13:07;20.48;;;14.57;;
65641;SDS011;52340;-6.720;108.544;2023-07-31T05:14:08;19.95;;;14.00;;
65641;SDS011;52340;-6.720;108.544;2023-07-31T05:15:10;19.70;;;14.38;;
65641;SDS011;52340;-6.720;108.544;2023-07-31T05:16:12;19.75;;;13.73;;
65641;SDS011;52340;-6.720;108.544;2023-07-31T05:17:13;19.85;;;14.20;;
65641;SDS011;52340;-6.720;108.544;2023-07-31T05:18:15;20.73;;;14.30;;
65641;SDS011;52340;-6.720;108.544;2023-07-31T05:19:17;20.30;;;13.90;;
65641;SDS011;52340;-6.720;108.544;2023-07-31T05:20:20;22.17;;;14.50;;
65641;SDS011;52340;-6.720;108.544;2023-07-31T05:21:22;21.38;;;14.85;;
65641;SDS011;52340;-6.720;108.544;2023-07-31T05:22:26;20.50;;;14.63;;
65641;SDS011;52340;-6.720;108.544;2023-07-31T05:23:28;19.65;;;13.70;;
65641;SDS011;52340;-6.720;108.544;2023-07-31T05:24:29;19.23;;;13.15;;
65641;SDS011;52340;-6.720;108.544;2023-07-31T05:25:31;20.10;;;13.50;;
65641;SDS011;52340;-6.720;108.544;2023-07-31T05:26:33;18.63;;;13.23;;
65641;SDS011;52340;-6.720;108.544;2023-07-31T05:27:35;20.73;;;13.48;;
65641;SDS011;52340;-6.720;108.544;2023-07-31T05:28:36;19.58;;;13.75;;
65641;SDS011;52340;-6.720;108.544;2023-07-31T05:29:38;20.35;;;13.13;;
65641;SDS011;52340;-6.720;108.544;2023-07-31T05:30:41;19.42;;;13.90;;
65641;SDS011;52340;-6.720;108.544;2023-07-31T05:31:43;22.52;;;13.70;;
65641;SDS011;52340;-6.720;108.544;2023-07-31T05:32:45;18.38;;;13.35;;
65641;SDS011;52340;-6.720;108.544;2023-07-31T05:33:47;21.10;;;13.90;;
65641;SDS011;52340;-6.720;108.544;2023-07-31T05:34:50;19.65;;;12.95;;
65641;SDS011;52340;-6.720;108.544;2023-07-31T05:35:54;21.27;;;13.55;;
65641;SDS011;52340;-6.720;108.544;2023-07-31T05:36:56;20.38;;;13.32;;
65641;SDS011;52340;-6.720;108.544;2023-07-31T05:37:57;22.20;;;13.52;;
65641;SDS011;52340;-6.720;108.544;2023-07-31T05:38:59;22.40;;;13.65;;
65641;SDS011;52340;-6.720;108.544;2023-07-31T05:40:01;17.80;;;12.77;;
65641;SDS011;52340;-6.720;108.544;2023-07-31T05:41:03;21.85;;;13.68;;
65641;SDS011;52340;-6.720;108.544;2023-07-31T05:42:05;22.77;;;14.18;;
65641;SDS011;52340;-6.720;108.544;2023-07-31T05:43:06;21.02;;;13.95;;
65641;SDS011;52340;-6.720;108.544;2023-07-31T05:44:08;23.40;;;13.68;;
65641;SDS011;52340;-6.720;108.544;2023-07-31T05:45:10;20.20;;;13.18;;
65641;SDS011;52340;-6.720;108.544;2023-07-31T05:46:12;20.02;;;14.13;;
65641;SDS011;52340;-6.720;108.544;2023-07-31T05:47:14;20.52;;;13.52;;
65641;SDS011;52340;-6.720;108.544;2023-07-31T05:48:15;27.33;;;17.23;;
65641;SDS011;52340;-6.720;108.544;2023-07-31T05:49:17;23.08;;;14.70;;
65641;SDS011;52340;-6.720;108.544;2023-07-31T05:50:19;23.63;;;14.00;;
65641;SDS011;52340;-6.720;108.544;2023-07-31T05:51:24;21.05;;;14.65;;
65641;SDS011;52340;-6.720;108.544;2023-07-31T05:52:26;25.13;;;14.30;;
65641;SDS011;52340;-6.720;108.544;2023-07-31T05:53:27;23.77;;;13.48;;
65641;SDS011;52340;-6.720;108.544;2023-07-31T05:54:29;20.52;;;13.82;;
65641;SDS011;52340;-6.720;108.544;2023-07-31T05:55:32;22.63;;;13.55;;
65641;SDS011;52340;-6.720;108.544;2023-07-31T05:56:34;20.67;;;13.65;;
65641;SDS011;52340;-6.720;108.544;2023-07-31T05:57:35;20.52;;;14.45;;